sensor_id;sensor_type;location;lat;lon;timestamp;P1;durP1;ratioP1;P2;durP2;ratioP2
80541;SDS011;69870;51.460;8.842;2023-08-01T00:02:17;5.80;;;1.92;;
80541;SDS011;69870;51.460;8.842;2023-08-01T00:04:43;7.10;;;2.78;;
80541;SDS011;69870;51.460;8.842;2023-08-01T00:07:10;11.77;;;2.88;;
80541;SDS011;69870;51.460;8.842;2023-08-01T00:09:38;7.90;;;2.80;;
80541;SDS011;69870;51.460;8.842;2023-08-01T00:12:05;5.05;;;2.08;;
80541;SDS011;69870;51.460;8.842;2023-08-01T00:14:32;12.23;;;2.67;;
80541;SDS011;69870;51.460;8.842;2023-08-01T00:16:58;10.80;;;3.72;;
80541;SDS011;69870;51.460;8.842;2023-08-01T00:19:25;7.72;;;2.20;;
80541;SDS011;69870;51.460;8.842;2023-08-01T00:21:51;10.93;;;2.67;;
80541;SDS011;69870;51.460;8.842;2023-08-01T00:24:18;9.45;;;2.33;;
80541;SDS011;69870;51.460;8.842;2023-08-01T00:26:46;7.20;;;2.08;;
80541;SDS011;69870;51.460;8.842;2023-08-01T00:29:12;7.10;;;2.30;;
80541;SDS011;69870;51.460;8.842;2023-08-01T00:31:39;5.28;;;1.90;;
80541;SDS011;69870;51.460;8.842;2023-08-01T00:34:06;8.63;;;2.17;;
80541;SDS011;69870;51.460;8.842;2023-08-01T00:36:32;8.90;;;1.95;;
80541;SDS011;69870;51.460;8.842;2023-08-01T00:38:59;6.43;;;1.83;;
80541;SDS011;69870;51.460;8.842;2023-08-01T00:41:25;4.72;;;2.35;;
80541;SDS011;69870;51.460;8.842;2023-08-01T00:43:53;7.57;;;2.38;;
80541;SDS011;69870;51.460;8.842;2023-08-01T00:46:20;7.72;;;2.30;;
80541;SDS011;69870;51.460;8.842;2023-08-01T00:48:46;11.15;;;2.20;;
80541;SDS011;69870;51.460;8.842;2023-08-01T00:51:13;11.23;;;1.73;;
80541;SDS011;69870;51.460;8.842;2023-08-01T00:53:43;5.78;;;1.58;;
80541;SDS011;69870;51.460;8.842;2023-08-01T00:56:10;5.53;;;1.25;;
80541;SDS011;69870;51.460;8.842;2023-08-01T00:58:37;12.38;;;2.75;;
80541;SDS011;69870;51.460;8.842;2023-08-01T01:01:05;17.88;;;2.55;;
80541;SDS011;69870;51.460;8.842;2023-08-01T01:03:32;8.07;;;1.73;;
80541;SDS011;69870;51.460;8.842;2023-08-01T01:06:01;7.10;;;1.30;;
80541;SDS011;69870;51.460;8.842;2023-08-01T01:08:40;5.88;;;1.48;;
80541;SDS011;69870;51.460;8.842;2023-08-01T01:11:07;5.55;;;1.38;;
80541;SDS011;69870;51.460;8.842;2023-08-01T01:13:34;4.97;;;1.70;;
80541;SDS011;69870;51.460;8.842;2023-08-01T01:16:00;9.40;;;2.10;;
80541;SDS011;69870;51.460;8.842;2023-08-01T01:18:28;13.25;;;2.05;;
80541;SDS011;69870;51.460;8.842;2023-08-01T01:20:57;11.18;;;1.60;;
80541;SDS011;69870;51.460;8.842;2023-08-01T01:23:23;14.85;;;1.80;;
80541;SDS011;69870;51.460;8.842;2023-08-01T01:25:51;4.38;;;1.52;;
80541;SDS011;69870;51.460;8.842;2023-08-01T01:28:20;9.35;;;2.15;;
80541;SDS011;69870;51.460;8.842;2023-08-01T01:30:47;11.02;;;1.98;;
80541;SDS011;69870;51.460;8.842;2023-08-01T01:33:15;7.75;;;1.52;;
80541;SDS011;69870;51.460;8.842;2023-08-01T01:35:42;7.93;;;1.38;;
80541;SDS011;69870;51.460;8.842;2023-08-01T01:38:10;11.73;;;1.27;;
80541;SDS011;69870;51.460;8.842;2023-08-01T01:40:36;6.22;;;1.30;;
80541;SDS011;69870;51.460;8.842;2023-08-01T01:43:03;3.53;;;1.27;;
80541;SDS011;69870;51.460;8.842;2023-08-01T01:45:29;4.93;;;1.10;;
80541;SDS011;69870;51.460;8.842;2023-08-01T01:47:56;6.45;;;1.20;;
80541;SDS011;69870;51.460;8.842;2023-08-01T01:50:23;5.43;;;1.25;;
80541;SDS011;69870;51.460;8.842;2023-08-01T01:52:49;5.18;;;1.05;;
80541;SDS011;69870;51.460;8.842;2023-08-01T01:57:42;8.57;;;1.42;;
80541;SDS011;69870;51.460;8.842;2023-08-01T02:00:10;6.60;;;1.40;;
80541;SDS011;69870;51.460;8.842;2023-08-01T02:02:40;7.88;;;1.60;;
80541;SDS011;69870;51.460;8.842;2023-08-01T02:05:06;4.88;;;1.52;;
80541;SDS011;69870;51.460;8.842;2023-08-01T02:07:33;5.28;;;1.00;;
80541;SDS011;69870;51.460;8.842;2023-08-01T02:10:00;5.10;;;1.33;;
80541;SDS011;69870;51.460;8.842;2023-08-01T02:12:31;8.70;;;1.50;;
80541;SDS011;69870;51.460;8.842;2023-08-01T02:14:59;5.15;;;1.17;;
80541;SDS011;69870;51.460;8.842;2023-08-01T02:17:26;4.72;;;0.95;;
80541;SDS011;69870;51.460;8.842;2023-08-01T02:19:53;3.90;;;1.20;;
80541;SDS011;69870;51.460;8.842;2023-08-01T02:22:19;5.70;;;1.40;;
80541;SDS011;69870;51.460;8.842;2023-08-01T02:24:46;4.00;;;1.00;;
80541;SDS011;69870;51.460;8.842;2023-08-01T02:27:12;2.40;;;1.20;;
80541;SDS011;69870;51.460;8.842;2023-08-01T02:29:40;7.97;;;1.23;;
80541;SDS011;69870;51.460;8.842;2023-08-01T02:32:07;11.80;;;1.20;;
80541;SDS011;69870;51.460;8.842;2023-08-01T02:34:34;9.10;;;1.23;;
80541;SDS011;69870;51.460;8.842;2023-08-01T02:37:00;3.85;;;1.20;;
80541;SDS011;69870;51.460;8.842;2023-08-01T02:39:27;10.93;;;1.20;;
80541;SDS011;69870;51.460;8.842;2023-08-01T02:41:53;11.07;;;1.25;;
80541;SDS011;69870;51.460;8.842;2023-08-01T02:44:20;7.53;;;1.90;;
80541;SDS011;69870;51.460;8.842;2023-08-01T02:46:49;4.93;;;1.08;;
80541;SDS011;69870;51.460;8.842;2023-08-01T02:49:16;2.97;;;1.35;;
80541;SDS011;69870;51.460;8.842;2023-08-01T02:51:42;6.90;;;1.20;;
80541;SDS011;69870;51.460;8.842;2023-08-01T02:54:09;4.32;;;1.15;;
80541;SDS011;69870;51.460;8.842;2023-08-01T02:56:35;8.10;;;0.90;;
80541;SDS011;69870;51.460;8.842;2023-08-01T02:59:06;8.63;;;1.10;;
80541;SDS011;69870;51.460;8.842;2023-08-01T03:01:33;3.72;;;1.00;;
80541;SDS011;69870;51.460;8.842;2023-08-01T03:04:01;1.65;;;0.88;;
80541;SDS011;69870;51.460;8.842;2023-08-01T03:06:30;8.13;;;1.40;;
80541;SDS011;69870;51.460;8.842;2023-08-01T03:08:57;8.23;;;1.50;;
80541;SDS011;69870;51.460;8.842;2023-08-01T03:11:23;6.78;;;0.95;;
80541;SDS011;69870;51.460;8.842;2023-08-01T03:13:50;5.93;;;0.85;;
80541;SDS011;69870;51.460;8.842;2023-08-01T03:16:17;5.68;;;1.38;;
80541;SDS011;69870;51.460;8.842;2023-08-01T03:18:43;6.53;;;1.10;;
80541;SDS011;69870;51.460;8.842;2023-08-01T03:21:11;7.28;;;0.70;;
80541;SDS011;69870;51.460;8.842;2023-08-01T03:23:38;7.82;;;1.20;;
80541;SDS011;69870;51.460;8.842;2023-08-01T03:26:05;2.05;;;0.80;;
80541;SDS011;69870;51.460;8.842;2023-08-01T03:28:32;10.18;;;1.42;;
80541;SDS011;69870;51.460;8.842;2023-08-01T03:30:58;12.10;;;1.40;;
80541;SDS011;69870;51.460;8.842;2023-08-01T03:33:25;6.78;;;0.88;;
80541;SDS011;69870;51.460;8.842;2023-08-01T03:35:52;6.55;;;1.20;;
80541;SDS011;69870;51.460;8.842;2023-08-01T03:38:20;7.45;;;1.00;;
80541;SDS011;69870;51.460;8.842;2023-08-01T03:40:47;3.15;;;0.82;;
80541;SDS011;69870;51.460;8.842;2023-08-01T03:43:13;4.90;;;0.93;;
80541;SDS011;69870;51.460;8.842;2023-08-01T03:45:40;4.72;;;0.93;;
80541;SDS011;69870;51.460;8.842;2023-08-01T03:48:06;4.55;;;0.43;;
80541;SDS011;69870;51.460;8.842;2023-08-01T03:50:33;1.60;;;0.50;;
80541;SDS011;69870;51.460;8.842;2023-08-01T03:52:59;10.48;;;0.90;;
80541;SDS011;69870;51.460;8.842;2023-08-01T03:55:27;7.10;;;0.65;;
80541;SDS011;69870;51.460;8.842;2023-08-01T03:57:54;2.38;;;0.40;;
80541;SDS011;69870;51.460;8.842;2023-08-01T04:00:20;3.03;;;0.43;;
80541;SDS011;69870;51.460;8.842;2023-08-01T04:02:47;11.70;;;0.55;;
80541;SDS011;69870;51.460;8.842;2023-08-01T04:05:13;4.18;;;0.70;;
80541;SDS011;69870;51.460;8.842;2023-08-01T04:07:40;0.20;;;0.20;;
80541;SDS011;69870;51.460;8.842;2023-08-01T04:10:09;0.43;;;0.10;;
80541;SDS011;69870;51.460;8.842;2023-08-01T04:12:37;0.68;;;0.35;;
80541;SDS011;69870;51.460;8.842;2023-08-01T04:15:04;4.63;;;0.50;;
80541;SDS011;69870;51.460;8.842;2023-08-01T04:17:31;6.50;;;0.60;;
80541;SDS011;69870;51.460;8.842;2023-08-01T04:19:58;0.40;;;0.25;;
80541;SDS011;69870;51.460;8.842;2023-08-01T04:22:24;2.83;;;0.25;;
80541;SDS011;69870;51.460;8.842;2023-08-01T04:24:51;9.82;;;0.50;;
80541;SDS011;69870;51.460;8.842;2023-08-01T04:27:18;13.20;;;1.00;;
80541;SDS011;69870;51.460;8.842;2023-08-01T04:29:45;5.10;;;0.40;;
80541;SDS011;69870;51.460;8.842;2023-08-01T04:32:12;0.85;;;0.43;;
80541;SDS011;69870;51.460;8.842;2023-08-01T04:34:40;1.20;;;0.93;;
80541;SDS011;69870;51.460;8.842;2023-08-01T04:37:07;3.95;;;0.82;;
80541;SDS011;69870;51.460;8.842;2023-08-01T04:39:35;3.58;;;2.17;;
80541;SDS011;69870;51.460;8.842;2023-08-01T04:42:02;3.33;;;0.85;;
80541;SDS011;69870;51.460;8.842;2023-08-01T04:44:29;3.97;;;1.10;;
80541;SDS011;69870;51.460;8.842;2023-08-01T04:46:57;3.55;;;1.10;;
80541;SDS011;69870;51.460;8.842;2023-08-01T04:49:23;1.70;;;1.35;;
80541;SDS011;69870;51.460;8.842;2023-08-01T04:51:50;2.28;;;1.30;;
80541;SDS011;69870;51.460;8.842;2023-08-01T04:54:17;5.18;;;1.42;;
80541;SDS011;69870;51.460;8.842;2023-08-01T04:56:43;3.45;;;1.70;;
80541;SDS011;69870;51.460;8.842;2023-08-01T04:59:10;16.30;;;2.30;;
80541;SDS011;69870;51.460;8.842;2023-08-01T05:01:36;1.95;;;1.65;;
80541;SDS011;69870;51.460;8.842;2023-08-01T05:04:04;1.92;;;1.63;;
80541;SDS011;69870;51.460;8.842;2023-08-01T05:06:31;2.03;;;1.52;;
80541;SDS011;69870;51.460;8.842;2023-08-01T05:08:57;7.57;;;1.80;;
80541;SDS011;69870;51.460;8.842;2023-08-01T05:11:24;5.45;;;1.73;;
80541;SDS011;69870;51.460;8.842;2023-08-01T05:13:50;2.75;;;2.40;;
80541;SDS011;69870;51.460;8.842;2023-08-01T05:16:17;7.15;;;2.40;;
80541;SDS011;69870;51.460;8.842;2023-08-01T05:18:44;6.35;;;2.30;;
80541;SDS011;69870;51.460;8.842;2023-08-01T05:21:11;5.97;;;2.10;;
80541;SDS011;69870;51.460;8.842;2023-08-01T05:23:38;2.88;;;2.00;;
80541;SDS011;69870;51.460;8.842;2023-08-01T05:26:05;3.22;;;2.63;;
80541;SDS011;69870;51.460;8.842;2023-08-01T05:28:31;4.88;;;2.47;;
80541;SDS011;69870;51.460;8.842;2023-08-01T05:30:58;5.65;;;3.10;;
80541;SDS011;69870;51.460;8.842;2023-08-01T05:33:24;7.90;;;3.00;;
80541;SDS011;69870;51.460;8.842;2023-08-01T05:35:51;7.25;;;3.85;;
80541;SDS011;69870;51.460;8.842;2023-08-01T05:38:19;8.00;;;4.20;;
80541;SDS011;69870;51.460;8.842;2023-08-01T05:40:45;4.93;;;4.00;;
80541;SDS011;69870;51.460;8.842;2023-08-01T05:43:12;14.45;;;4.95;;
80541;SDS011;69870;51.460;8.842;2023-08-01T05:45:38;9.73;;;5.43;;
80541;SDS011;69870;51.460;8.842;2023-08-01T05:48:05;9.70;;;6.28;;
80541;SDS011;69870;51.460;8.842;2023-08-01T05:50:31;18.30;;;8.77;;
80541;SDS011;69870;51.460;8.842;2023-08-01T05:52:58;12.27;;;8.20;;
80541;SDS011;69870;51.460;8.842;2023-08-01T05:55:26;17.42;;;10.68;;
80541;SDS011;69870;51.460;8.842;2023-08-01T05:57:52;23.73;;;11.57;;
80541;SDS011;69870;51.460;8.842;2023-08-01T06:00:19;19.98;;;12.45;;
80541;SDS011;69870;51.460;8.842;2023-08-01T06:02:46;28.65;;;14.32;;
80541;SDS011;69870;51.460;8.842;2023-08-01T06:05:13;28.45;;;15.55;;
80541;SDS011;69870;51.460;8.842;2023-08-01T06:07:39;24.60;;;16.45;;
80541;SDS011;69870;51.460;8.842;2023-08-01T06:10:06;30.70;;;19.35;;
80541;SDS011;69870;51.460;8.842;2023-08-01T06:12:35;26.65;;;17.20;;
80541;SDS011;69870;51.460;8.842;2023-08-01T06:15:02;35.45;;;20.88;;
80541;SDS011;69870;51.460;8.842;2023-08-01T06:17:29;30.30;;;17.65;;
80541;SDS011;69870;51.460;8.842;2023-08-01T06:19:55;33.20;;;22.05;;
80541;SDS011;69870;51.460;8.842;2023-08-01T06:22:22;35.35;;;21.85;;
80541;SDS011;69870;51.460;8.842;2023-08-01T06:24:48;37.72;;;23.33;;
80541;SDS011;69870;51.460;8.842;2023-08-01T06:27:15;33.60;;;19.92;;
80541;SDS011;69870;51.460;8.842;2023-08-01T06:29:44;30.50;;;19.70;;
80541;SDS011;69870;51.460;8.842;2023-08-01T06:32:10;32.95;;;21.83;;
80541;SDS011;69870;51.460;8.842;2023-08-01T06:34:37;32.63;;;20.55;;
80541;SDS011;69870;51.460;8.842;2023-08-01T06:37:04;40.75;;;23.00;;
80541;SDS011;69870;51.460;8.842;2023-08-01T06:39:30;42.38;;;25.23;;
80541;SDS011;69870;51.460;8.842;2023-08-01T06:41:57;40.95;;;22.02;;
80541;SDS011;69870;51.460;8.842;2023-08-01T06:44:24;27.63;;;20.23;;
80541;SDS011;69870;51.460;8.842;2023-08-01T06:46:51;31.95;;;20.58;;
80541;SDS011;69870;51.460;8.842;2023-08-01T06:49:18;25.20;;;17.48;;
80541;SDS011;69870;51.460;8.842;2023-08-01T06:51:44;28.52;;;19.38;;
80541;SDS011;69870;51.460;8.842;2023-08-01T06:54:11;33.40;;;20.35;;
80541;SDS011;69870;51.460;8.842;2023-08-01T06:56:38;30.27;;;18.75;;
80541;SDS011;69870;51.460;8.842;2023-08-01T06:59:04;35.90;;;20.85;;
80541;SDS011;69870;51.460;8.842;2023-08-01T07:01:32;31.42;;;20.17;;
80541;SDS011;69870;51.460;8.842;2023-08-01T07:04:01;34.22;;;21.00;;
80541;SDS011;69870;51.460;8.842;2023-08-01T07:06:28;36.28;;;20.40;;
80541;SDS011;69870;51.460;8.842;2023-08-01T07:08:54;33.75;;;20.10;;
80541;SDS011;69870;51.460;8.842;2023-08-01T07:11:22;32.65;;;20.65;;
80541;SDS011;69870;51.460;8.842;2023-08-01T07:13:49;25.88;;;16.75;;
80541;SDS011;69870;51.460;8.842;2023-08-01T07:16:15;25.20;;;15.02;;
80541;SDS011;69870;51.460;8.842;2023-08-01T07:18:42;24.38;;;14.35;;
80541;SDS011;69870;51.460;8.842;2023-08-01T07:21:10;26.17;;;15.95;;
80541;SDS011;69870;51.460;8.842;2023-08-01T07:23:37;37.20;;;16.88;;
80541;SDS011;69870;51.460;8.842;2023-08-01T07:26:03;29.90;;;15.35;;
80541;SDS011;69870;51.460;8.842;2023-08-01T07:28:30;25.15;;;13.10;;
80541;SDS011;69870;51.460;8.842;2023-08-01T07:30:59;28.52;;;14.48;;
80541;SDS011;69870;51.460;8.842;2023-08-01T07:33:26;28.55;;;12.73;;
80541;SDS011;69870;51.460;8.842;2023-08-01T07:35:53;22.85;;;13.80;;
80541;SDS011;69870;51.460;8.842;2023-08-01T07:38:21;23.58;;;12.93;;
80541;SDS011;69870;51.460;8.842;2023-08-01T07:40:48;21.17;;;12.52;;
80541;SDS011;69870;51.460;8.842;2023-08-01T07:43:14;19.38;;;11.88;;
80541;SDS011;69870;51.460;8.842;2023-08-01T07:45:41;28.20;;;13.48;;
80541;SDS011;69870;51.460;8.842;2023-08-01T07:48:08;21.17;;;11.75;;
80541;SDS011;69870;51.460;8.842;2023-08-01T07:50:34;18.70;;;11.55;;
80541;SDS011;69870;51.460;8.842;2023-08-01T07:53:01;19.55;;;11.82;;
80541;SDS011;69870;51.460;8.842;2023-08-01T07:55:29;29.35;;;12.00;;
80541;SDS011;69870;51.460;8.842;2023-08-01T07:57:59;16.83;;;10.50;;
80541;SDS011;69870;51.460;8.842;2023-08-01T08:00:26;24.27;;;11.20;;
80541;SDS011;69870;51.460;8.842;2023-08-01T08:02:53;15.73;;;9.25;;
80541;SDS011;69870;51.460;8.842;2023-08-01T08:05:19;15.02;;;10.10;;
80541;SDS011;69870;51.460;8.842;2023-08-01T08:07:46;15.98;;;8.77;;
80541;SDS011;69870;51.460;8.842;2023-08-01T08:10:12;14.18;;;9.30;;
80541;SDS011;69870;51.460;8.842;2023-08-01T08:12:41;17.60;;;10.20;;
80541;SDS011;69870;51.460;8.842;2023-08-01T08:15:08;19.33;;;9.07;;
80541;SDS011;69870;51.460;8.842;2023-08-01T08:17:35;12.27;;;7.60;;
80541;SDS011;69870;51.460;8.842;2023-08-01T08:20:02;14.77;;;7.80;;
80541;SDS011;69870;51.460;8.842;2023-08-01T08:22:31;15.60;;;8.30;;
80541;SDS011;69870;51.460;8.842;2023-08-01T08:24:57;13.75;;;6.55;;
80541;SDS011;69870;51.460;8.842;2023-08-01T08:27:24;14.07;;;8.25;;
80541;SDS011;69870;51.460;8.842;2023-08-01T08:29:52;17.70;;;7.50;;
80541;SDS011;69870;51.460;8.842;2023-08-01T08:32:18;11.93;;;6.75;;
80541;SDS011;69870;51.460;8.842;2023-08-01T08:34:45;15.52;;;6.72;;
80541;SDS011;69870;51.460;8.842;2023-08-01T08:37:12;16.20;;;6.82;;
80541;SDS011;69870;51.460;8.842;2023-08-01T08:39:38;13.23;;;7.63;;
80541;SDS011;69870;51.460;8.842;2023-08-01T08:42:05;13.38;;;7.50;;
80541;SDS011;69870;51.460;8.842;2023-08-01T08:44:32;14.13;;;7.63;;
80541;SDS011;69870;51.460;8.842;2023-08-01T08:47:08;19.80;;;8.48;;
80541;SDS011;69870;51.460;8.842;2023-08-01T08:49:37;18.77;;;8.30;;
80541;SDS011;69870;51.460;8.842;2023-08-01T08:52:05;14.82;;;7.68;;
80541;SDS011;69870;51.460;8.842;2023-08-01T08:54:32;22.30;;;7.78;;
80541;SDS011;69870;51.460;8.842;2023-08-01T08:56:59;12.85;;;7.63;;
80541;SDS011;69870;51.460;8.842;2023-08-01T08:59:26;11.70;;;5.63;;
80541;SDS011;69870;51.460;8.842;2023-08-01T09:01:55;13.48;;;8.25;;
80541;SDS011;69870;51.460;8.842;2023-08-01T09:04:23;15.93;;;6.97;;
80541;SDS011;69870;51.460;8.842;2023-08-01T09:06:49;14.77;;;7.00;;
80541;SDS011;69870;51.460;8.842;2023-08-01T09:09:20;21.50;;;7.60;;
80541;SDS011;69870;51.460;8.842;2023-08-01T09:11:48;17.00;;;7.00;;
80541;SDS011;69870;51.460;8.842;2023-08-01T09:14:16;13.80;;;7.05;;
80541;SDS011;69870;51.460;8.842;2023-08-01T09:16:44;14.48;;;7.00;;
80541;SDS011;69870;51.460;8.842;2023-08-01T09:19:15;9.70;;;6.00;;
80541;SDS011;69870;51.460;8.842;2023-08-01T09:21:44;16.00;;;5.95;;
80541;SDS011;69870;51.460;8.842;2023-08-01T09:24:12;11.13;;;5.93;;
80541;SDS011;69870;51.460;8.842;2023-08-01T09:26:39;13.73;;;6.03;;
80541;SDS011;69870;51.460;8.842;2023-08-01T09:29:06;12.85;;;7.22;;
80541;SDS011;69870;51.460;8.842;2023-08-01T09:31:34;13.95;;;7.43;;
80541;SDS011;69870;51.460;8.842;2023-08-01T09:34:02;17.70;;;6.85;;
80541;SDS011;69870;51.460;8.842;2023-08-01T09:36:31;19.00;;;7.15;;
80541;SDS011;69870;51.460;8.842;2023-08-01T09:39:00;15.77;;;7.35;;
80541;SDS011;69870;51.460;8.842;2023-08-01T09:41:28;15.48;;;7.38;;
80541;SDS011;69870;51.460;8.842;2023-08-01T09:43:55;11.77;;;7.18;;
80541;SDS011;69870;51.460;8.842;2023-08-01T09:46:22;11.32;;;6.20;;
80541;SDS011;69870;51.460;8.842;2023-08-01T09:48:49;14.30;;;6.57;;
80541;SDS011;69870;51.460;8.842;2023-08-01T09:51:16;10.88;;;6.10;;
80541;SDS011;69870;51.460;8.842;2023-08-01T09:53:47;16.05;;;6.22;;
80541;SDS011;69870;51.460;8.842;2023-08-01T09:56:16;10.95;;;5.95;;
80541;SDS011;69870;51.460;8.842;2023-08-01T09:58:45;14.43;;;6.68;;
80541;SDS011;69870;51.460;8.842;2023-08-01T10:01:13;10.40;;;6.60;;
80541;SDS011;69870;51.460;8.842;2023-08-01T10:03:41;9.18;;;7.25;;
80541;SDS011;69870;51.460;8.842;2023-08-01T10:06:13;11.30;;;7.18;;
80541;SDS011;69870;51.460;8.842;2023-08-01T10:08:43;10.38;;;6.20;;
80541;SDS011;69870;51.460;8.842;2023-08-01T10:11:10;19.33;;;7.18;;
80541;SDS011;69870;51.460;8.842;2023-08-01T10:13:39;13.57;;;5.97;;
80541;SDS011;69870;51.460;8.842;2023-08-01T10:16:08;8.35;;;6.00;;
80541;SDS011;69870;51.460;8.842;2023-08-01T10:18:35;13.23;;;6.93;;
80541;SDS011;69870;51.460;8.842;2023-08-01T10:21:04;14.18;;;6.30;;
80541;SDS011;69870;51.460;8.842;2023-08-01T10:23:32;8.70;;;5.75;;
80541;SDS011;69870;51.460;8.842;2023-08-01T10:25:59;9.98;;;5.25;;
80541;SDS011;69870;51.460;8.842;2023-08-01T10:28:32;12.50;;;5.95;;
80541;SDS011;69870;51.460;8.842;2023-08-01T10:31:08;11.75;;;5.05;;
80541;SDS011;69870;51.460;8.842;2023-08-01T10:33:36;12.75;;;5.45;;
80541;SDS011;69870;51.460;8.842;2023-08-01T10:36:12;9.95;;;4.65;;
80541;SDS011;69870;51.460;8.842;2023-08-01T10:38:44;9.23;;;5.10;;
80541;SDS011;69870;51.460;8.842;2023-08-01T10:41:19;10.40;;;5.38;;
80541;SDS011;69870;51.460;8.842;2023-08-01T10:43:46;16.50;;;5.65;;
80541;SDS011;69870;51.460;8.842;2023-08-01T10:46:14;14.77;;;5.82;;
80541;SDS011;69870;51.460;8.842;2023-08-01T10:48:47;9.90;;;5.45;;
80541;SDS011;69870;51.460;8.842;2023-08-01T10:51:15;10.85;;;5.72;;
80541;SDS011;69870;51.460;8.842;2023-08-01T10:53:41;13.18;;;5.50;;
80541;SDS011;69870;51.460;8.842;2023-08-01T10:56:08;13.50;;;6.28;;
80541;SDS011;69870;51.460;8.842;2023-08-01T10:58:42;10.40;;;5.13;;
80541;SDS011;69870;51.460;8.842;2023-08-01T11:01:08;11.60;;;4.75;;
80541;SDS011;69870;51.460;8.842;2023-08-01T11:03:36;8.75;;;4.60;;
80541;SDS011;69870;51.460;8.842;2023-08-01T11:06:03;11.75;;;5.82;;
80541;SDS011;69870;51.460;8.842;2023-08-01T11:08:34;14.60;;;5.45;;
80541;SDS011;69870;51.460;8.842;2023-08-01T11:11:01;10.80;;;6.10;;
80541;SDS011;69870;51.460;8.842;2023-08-01T11:13:27;15.30;;;5.68;;
80541;SDS011;69870;51.460;8.842;2023-08-01T11:15:54;12.27;;;6.15;;
80541;SDS011;69870;51.460;8.842;2023-08-01T11:18:21;14.18;;;6.13;;
80541;SDS011;69870;51.460;8.842;2023-08-01T11:20:49;7.97;;;4.65;;
80541;SDS011;69870;51.460;8.842;2023-08-01T11:23:16;8.38;;;4.70;;
80541;SDS011;69870;51.460;8.842;2023-08-01T11:25:43;10.70;;;5.15;;
80541;SDS011;69870;51.460;8.842;2023-08-01T11:28:15;13.95;;;5.20;;
80541;SDS011;69870;51.460;8.842;2023-08-01T11:30:42;8.45;;;4.03;;
80541;SDS011;69870;51.460;8.842;2023-08-01T11:33:15;6.40;;;3.95;;
80541;SDS011;69870;51.460;8.842;2023-08-01T11:35:42;7.43;;;4.22;;
80541;SDS011;69870;51.460;8.842;2023-08-01T11:38:10;10.82;;;3.92;;
80541;SDS011;69870;51.460;8.842;2023-08-01T11:40:37;7.40;;;3.95;;
80541;SDS011;69870;51.460;8.842;2023-08-01T11:43:05;10.88;;;4.40;;
80541;SDS011;69870;51.460;8.842;2023-08-01T11:45:31;16.40;;;5.93;;
80541;SDS011;69870;51.460;8.842;2023-08-01T11:47:58;8.40;;;4.13;;
80541;SDS011;69870;51.460;8.842;2023-08-01T11:50:25;9.95;;;4.97;;
80541;SDS011;69870;51.460;8.842;2023-08-01T11:52:52;8.95;;;3.72;;
80541;SDS011;69870;51.460;8.842;2023-08-01T11:55:20;13.40;;;4.05;;
80541;SDS011;69870;51.460;8.842;2023-08-01T11:57:51;3.92;;;3.40;;
80541;SDS011;69870;51.460;8.842;2023-08-01T12:00:21;5.57;;;3.60;;
80541;SDS011;69870;51.460;8.842;2023-08-01T12:02:48;10.57;;;3.88;;
80541;SDS011;69870;51.460;8.842;2023-08-01T12:05:20;7.13;;;3.17;;
80541;SDS011;69870;51.460;8.842;2023-08-01T12:07:48;7.70;;;2.83;;
80541;SDS011;69870;51.460;8.842;2023-08-01T12:10:14;6.60;;;3.10;;
80541;SDS011;69870;51.460;8.842;2023-08-01T12:12:44;9.80;;;3.38;;
80541;SDS011;69870;51.460;8.842;2023-08-01T12:15:12;7.38;;;3.33;;
80541;SDS011;69870;51.460;8.842;2023-08-01T12:17:39;7.13;;;2.70;;
80541;SDS011;69870;51.460;8.842;2023-08-01T12:20:06;6.50;;;3.13;;
80541;SDS011;69870;51.460;8.842;2023-08-01T12:22:33;7.05;;;3.38;;
80541;SDS011;69870;51.460;8.842;2023-08-01T12:25:00;10.95;;;5.10;;
80541;SDS011;69870;51.460;8.842;2023-08-01T12:27:27;10.40;;;3.63;;
80541;SDS011;69870;51.460;8.842;2023-08-01T12:29:55;5.53;;;3.55;;
80541;SDS011;69870;51.460;8.842;2023-08-01T12:32:21;7.60;;;3.53;;
80541;SDS011;69870;51.460;8.842;2023-08-01T12:34:48;12.75;;;3.67;;
80541;SDS011;69870;51.460;8.842;2023-08-01T12:37:14;5.97;;;3.08;;
80541;SDS011;69870;51.460;8.842;2023-08-01T12:39:41;5.18;;;2.72;;
80541;SDS011;69870;51.460;8.842;2023-08-01T12:42:07;4.35;;;2.85;;
80541;SDS011;69870;51.460;8.842;2023-08-01T12:44:34;6.13;;;3.08;;
80541;SDS011;69870;51.460;8.842;2023-08-01T12:47:02;9.93;;;3.05;;
80541;SDS011;69870;51.460;8.842;2023-08-01T12:49:28;12.38;;;2.88;;
80541;SDS011;69870;51.460;8.842;2023-08-01T12:51:55;5.78;;;3.92;;
80541;SDS011;69870;51.460;8.842;2023-08-01T12:54:22;4.50;;;2.70;;
80541;SDS011;69870;51.460;8.842;2023-08-01T12:56:49;4.95;;;2.40;;
80541;SDS011;69870;51.460;8.842;2023-08-01T12:59:15;6.80;;;2.70;;
80541;SDS011;69870;51.460;8.842;2023-08-01T13:01:42;8.52;;;3.00;;
80541;SDS011;69870;51.460;8.842;2023-08-01T13:04:10;7.28;;;3.17;;
80541;SDS011;69870;51.460;8.842;2023-08-01T13:06:36;5.85;;;3.45;;
80541;SDS011;69870;51.460;8.842;2023-08-01T13:09:03;16.55;;;6.15;;
80541;SDS011;69870;51.460;8.842;2023-08-01T13:11:30;11.07;;;3.72;;
80541;SDS011;69870;51.460;8.842;2023-08-01T13:13:56;5.40;;;2.63;;
80541;SDS011;69870;51.460;8.842;2023-08-01T13:16:23;7.97;;;3.10;;
80541;SDS011;69870;51.460;8.842;2023-08-01T13:18:49;9.18;;;2.50;;
80541;SDS011;69870;51.460;8.842;2023-08-01T13:21:17;4.47;;;2.38;;
80541;SDS011;69870;51.460;8.842;2023-08-01T13:23:44;8.10;;;2.58;;
80541;SDS011;69870;51.460;8.842;2023-08-01T13:26:10;4.97;;;2.40;;
80541;SDS011;69870;51.460;8.842;2023-08-01T13:28:37;4.82;;;2.58;;
80541;SDS011;69870;51.460;8.842;2023-08-01T13:31:04;5.05;;;2.45;;
80541;SDS011;69870;51.460;8.842;2023-08-01T13:33:30;6.30;;;2.70;;
80541;SDS011;69870;51.460;8.842;2023-08-01T13:35:57;4.55;;;2.53;;
80541;SDS011;69870;51.460;8.842;2023-08-01T13:38:25;7.32;;;2.50;;
80541;SDS011;69870;51.460;8.842;2023-08-01T13:40:52;8.35;;;3.08;;
80541;SDS011;69870;51.460;8.842;2023-08-01T13:43:18;9.80;;;3.53;;
80541;SDS011;69870;51.460;8.842;2023-08-01T13:45:45;9.68;;;3.80;;
80541;SDS011;69870;51.460;8.842;2023-08-01T13:48:12;8.57;;;3.80;;
80541;SDS011;69870;51.460;8.842;2023-08-01T13:50:38;10.50;;;3.97;;
80541;SDS011;69870;51.460;8.842;2023-08-01T13:53:05;5.03;;;2.88;;
80541;SDS011;69870;51.460;8.842;2023-08-01T13:55:36;9.30;;;3.40;;
80541;SDS011;69870;51.460;8.842;2023-08-01T13:58:03;11.43;;;4.20;;
80541;SDS011;69870;51.460;8.842;2023-08-01T14:00:30;12.48;;;4.32;;
80541;SDS011;69870;51.460;8.842;2023-08-01T14:02:57;7.72;;;4.55;;
80541;SDS011;69870;51.460;8.842;2023-08-01T14:05:24;8.80;;;4.22;;
80541;SDS011;69870;51.460;8.842;2023-08-01T14:07:51;7.03;;;3.42;;
80541;SDS011;69870;51.460;8.842;2023-08-01T14:10:17;8.98;;;4.07;;
80541;SDS011;69870;51.460;8.842;2023-08-01T14:12:46;9.82;;;3.65;;
80541;SDS011;69870;51.460;8.842;2023-08-01T14:15:12;12.23;;;4.00;;
80541;SDS011;69870;51.460;8.842;2023-08-01T14:17:39;7.55;;;3.22;;
80541;SDS011;69870;51.460;8.842;2023-08-01T14:20:06;8.82;;;3.72;;
80541;SDS011;69870;51.460;8.842;2023-08-01T14:22:34;11.13;;;3.55;;
80541;SDS011;69870;51.460;8.842;2023-08-01T14:25:01;8.65;;;4.00;;
80541;SDS011;69870;51.460;8.842;2023-08-01T14:27:28;7.07;;;3.25;;
80541;SDS011;69870;51.460;8.842;2023-08-01T14:29:56;5.68;;;2.78;;
80541;SDS011;69870;51.460;8.842;2023-08-01T14:32:23;6.70;;;3.10;;
80541;SDS011;69870;51.460;8.842;2023-08-01T14:34:49;13.63;;;3.85;;
80541;SDS011;69870;51.460;8.842;2023-08-01T14:37:16;8.70;;;3.63;;
80541;SDS011;69870;51.460;8.842;2023-08-01T14:39:42;9.73;;;2.90;;
80541;SDS011;69870;51.460;8.842;2023-08-01T14:42:09;8.43;;;3.80;;
80541;SDS011;69870;51.460;8.842;2023-08-01T14:44:36;9.98;;;3.60;;